Date,TemperatureHighF,TemperatureAvgF,TemperatureLowF,DewpointHighF,DewpointAvgF,DewpointLowF,HumidityHigh,HumidityAvg,HumidityLow,PressureMaxIn,PressureMinIn,WindSpeedMaxMPH,WindSpeedAvgMPH,GustSpeedMaxMPH,PrecipitationSumIn
2013-1-1,56.8,45.1,40.1,41.8,38.2,33.9,93,78,56,30.18,30.10,0,0,2,0.00
2013-1-2,45.9,42.9,40.8,34.7,33.9,33.2,74,71,63,30.07,30.05,0,0,1,0.00
2013-1-3,56.8,44.2,36.7,39.9,35.7,31.6,85,73,53,30.17,30.07,0,0,2,0.00
2013-1-4,58.8,45.8,39.9,38.6,36.4,35.0,84,71,47,30.20,30.08,0,0,1,0.00
2013-1-5,51.4,45.9,41.0,46.6,41.2,37.1,87,84,79,30.16,30.01,0,0,1,0.00
2013-1-7,60.1,51.1,42.3,51.3,47.5,40.9,95,88,72,30.15,30.05,0,0,1,0.00
2013-1-8,60.4,49.4,45.0,49.4,45.6,43.8,96,87,67,30.14,30.03,0,0,1,0.00
2013-1-9,55.4,48.2,44.2,49.7,42.7,36.1,93,82,68,30.05,29.89,3,1,8,0.00
2013-1-10,45.7,43.3,41.2,35.8,33.8,30.5,81,69,59,30.09,29.97,2,1,5,0.00
2013-1-11,46.4,44.1,42.4,39.3,32.6,28.5,76,64,54,30.14,30.02,3,0,8,0.00
2013-1-12,52.5,43.1,36.0,35.9,32.5,23.5,83,68,36,30.15,30.03,0,0,1,0.00
2013-1-13,43.3,42.1,41.2,32.6,26.9,17.5,69,56,38,30.13,30.09,1,0,2,0.00
2013-1-14,41.2,37.7,34.3,23.0,19.4,16.3,62,48,36,30.25,30.13,0,0,1,0.00
2013-1-15,38.3,37.1,36.3,33.7,32.4,31.4,87,83,76,30.37,30.32,0,0,0,0.00
2013-1-16,54.5,46.8,37.4,34.7,32.0,29.4,82,57,43,30.33,30.16,0,0,2,0.00
2013-1-17,60.3,46.8,40.3,34.8,32.9,29.7,77,60,36,30.17,30.05,0,0,1,0.00
2013-1-18,63.7,51.0,42.8,36.6,34.1,31.5,71,54,32,30.14,30.03,1,0,2,0.00
2013-1-20,59.7,55.0,51.3,31.2,29.2,27.1,46,37,30,30.12,30.04,0,0,2,0.00
2013-1-21,62.4,53.5,44.6,38.6,35.6,33.0,73,52,36,30.09,29.99,0,0,2,0.00
2013-1-22,60.4,51.8,45.0,41.9,38.6,36.3,73,62,42,30.03,29.89,1,0,3,0.00
2013-1-23,54.9,51.9,50.2,49.2,45.8,41.8,95,80,69,29.99,29.85,0,0,2,0.00
2013-1-24,61.3,54.7,50.2,53.2,51.1,48.5,96,88,74,30.09,29.97,0,0,1,0.00
2013-1-25,68.0,57.7,52.3,55.8,52.7,50.7,95,84,65,30.09,29.93,1,0,2,0.01
2013-1-26,56.3,52.8,48.0,50.8,43.6,36.6,90,72,51,29.97,29.88,5,1,10,0.00
2013-1-27,55.8,48.6,43.9,41.1,37.2,33.2,79,65,46,30.07,29.97,2,1,6,0.00
2013-1-28,57.0,50.0,46.0,42.5,39.5,34.4,81,67,54,30.18,30.06,5,1,10,0.00
2013-1-29,61.3,51.8,46.4,44.0,41.2,38.8,80,68,51,30.25,30.16,2,0,5,0.00
2013-1-30,68.7,53.0,44.2,47.8,44.0,41.5,91,73,41,30.24,30.14,0,0,0,0.00
2013-1-31,68.4,52.0,43.9,48.6,44.3,40.9,90,77,48,30.20,30.08,0,0,1,0.00
2013-2-1,49.6,47.8,46.8,44.9,43.6,42.8,87,85,82,30.11,30.09,0,0,0,0.00
2013-2-3,65.3,54.4,47.5,49.2,45.7,43.7,87,73,56,30.15,30.03,0,0,1,0.00
2013-2-4,61.9,51.2,44.2,50.7,46.5,42.9,95,84,65,30.08,29.96,0,0,1,0.00
2013-2-5,58.1,51.1,45.3,46.8,43.7,40.6,88,76,64,30.05,29.96,4,1,9,0.00
2013-2-6,58.6,49.3,41.9,46.4,40.6,37.7,86,73,50,30.09,30.02,4,0,10,0.00
2013-2-7,57.0,49.3,41.4,47.6,42.1,36.4,92,77,47,30.06,29.89,2,0,4,0.00
2013-2-8,56.3,47.1,39.6,40.4,37.2,24.6,94,71,36,29.92,29.83,3,0,5,0.00
2013-2-9,64.6,48.4,39.9,36.0,31.7,26.5,70,54,31,29.98,29.90,2,0,3,0.00
2013-2-10,68.0,48.0,37.9,44.0,36.3,29.3,83,65,38,30.02,29.91,0,0,1,0.00
2013-2-11,70.2,53.9,45.0,38.7,31.2,24.1,73,44,24,30.13,29.97,0,0,2,0.00
2013-2-12,68.5,49.9,40.6,43.1,39.1,36.6,89,69,37,30.27,30.13,2,0,3,0.00
2013-2-13,69.4,50.6,41.0,49.3,42.3,37.3,90,75,46,30.24,30.10,0,0,1,0.00
2013-2-14,75.7,54.3,43.7,46.9,43.4,40.8,91,70,36,30.14,30.04,0,0,2,0.00
2013-2-15,76.3,57.6,49.3,44.4,40.7,35.5,82,56,30,30.17,30.10,1,0,2,0.00
2013-2-16,75.9,57.9,49.6,46.2,42.7,39.4,80,59,33,30.14,29.94,0,0,1,0.00
2013-2-17,70.3,52.8,44.6,47.4,43.3,40.3,87,72,41,29.96,29.85,0,0,3,0.00
2013-2-18,54.7,47.4,41.9,44.5,39.8,37.8,92,76,55,29.93,29.85,2,0,5,0.00
2013-2-19,49.6,44.8,40.6,42.6,36.1,32.3,87,72,56,29.74,29.63,2,0,4,0.00
2013-2-20,59.2,48.5,39.6,39.3,34.8,31.0,74,60,42,29.94,29.74,2,0,7,0.00
2013-2-21,64.2,51.1,44.2,37.2,34.2,28.0,74,55,28,30.05,29.94,2,0,7,0.00
2013-2-22,66.0,51.4,41.5,46.9,39.1,29.5,84,66,26,30.13,30.05,4,0,14,0.00
2013-2-23,56.5,51.3,46.8,47.4,36.9,25.4,86,60,37,30.15,30.06,4,1,10,0.00
2013-2-24,72.1,54.8,46.4,35.3,24.5,13.8,62,33,17,30.15,30.05,2,0,4,0.00
2013-2-25,69.6,51.9,42.1,43.9,38.6,34.5,86,62,33,30.17,30.07,4,0,7,0.00
2013-2-26,73.8,53.5,41.2,36.8,31.0,14.5,79,48,16,30.13,30.02,0,0,2,0.00
2013-2-27,75.6,54.6,42.8,47.4,39.6,35.5,77,59,29,30.25,30.10,3,0,5,0.00
2013-2-28,70.2,58.7,50.9,52.0,49.1,44.6,86,71,51,30.35,30.26,2,0,5,0.00
2013-3-1,80.1,58.9,47.8,53.4,48.3,45.6,92,71,36,30.34,30.13,0,0,2,0.00
2013-3-2,67.8,57.1,52.7,51.1,48.8,46.6,85,75,55,30.13,30.04,0,0,2,0.00
2013-3-4,63.7,54.2,45.1,47.5,43.4,39.0,79,68,49,30.04,29.95,2,0,4,0.00
2013-3-5,55.8,48.4,40.1,47.5,41.8,37.1,91,78,63,29.96,29.72,2,0,5,0.00
2013-3-6,60.8,52.1,45.0,49.1,42.7,39.9,94,72,46,29.96,29.73,4,1,8,0.00
2013-3-7,58.6,49.8,43.2,45.6,42.3,39.4,91,77,52,29.90,29.76,1,0,2,0.00
2013-3-8,57.7,50.7,46.0,43.3,40.2,36.8,83,68,47,29.94,29.74,5,1,11,0.00
2013-3-9,76.5,54.9,43.0,44.2,39.6,33.1,86,61,22,30.20,29.95,4,0,6,0.00
2013-3-10,80.4,56.8,44.4,48.5,40.6,31.1,87,60,23,30.25,30.13,0,0,2,0.00
2013-3-11,84.0,57.6,43.9,47.0,42.2,38.2,86,61,22,30.16,29.98,1,0,2,0.00
2013-3-12,75.6,54.1,46.4,52.7,46.5,42.9,91,77,45,30.06,29.96,0,0,0,0.00
2013-3-13,82.9,61.4,47.8,53.7,49.4,44.9,91,69,34,30.06,29.94,0,0,1,0.00
2013-3-14,72.7,60.6,51.6,54.9,45.1,21.5,87,62,15,30.06,29.99,4,0,8,0.00
2013-3-15,75.4,58.7,48.7,52.3,46.2,42.2,80,65,36,30.03,29.93,2,0,8,0.00
2013-3-16,72.1,58.5,48.7,52.5,44.0,34.0,92,63,26,30.00,29.91,4,1,16,0.00
2013-3-17,74.8,58.9,52.0,42.9,39.7,36.0,67,50,29,30.04,29.93,3,0,7,0.00
2013-3-18,69.6,56.3,45.3,50.2,43.8,34.8,85,65,42,30.02,29.92,0,0,2,0.00
2013-3-19,68.9,55.8,48.7,50.4,44.8,33.4,85,68,37,30.03,29.95,0,0,2,0.00
2013-3-20,67.5,55.5,50.5,55.2,49.7,44.3,92,81,61,30.03,29.97,2,0,3,0.00
2013-3-21,68.7,52.7,45.3,46.2,41.2,38.4,83,67,36,30.03,29.91,2,0,5,0.00
2013-3-22,72.0,56.8,44.1,40.9,29.6,11.8,74,42,12,30.02,29.93,2,0,6,0.00
2013-3-23,81.0,57.2,44.1,40.6,33.7,20.8,71,47,13,30.05,29.93,1,0,2,0.00
2013-3-24,76.3,56.7,45.1,47.9,42.5,39.3,81,61,29,29.99,29.86,1,0,2,0.00
2013-3-25,52.7,52.7,52.7,40.5,40.5,40.5,63,63,63,29.89,29.89,0,0,0,0.00
2013-3-28,59.4,56.4,54.0,54.4,53.4,52.0,93,90,83,29.97,29.95,0,0,1,0.00
2013-3-29,75.0,66.4,60.3,51.6,50.6,49.0,73,58,40,29.95,29.89,2,0,4,0.00
2013-3-30,68.4,59.6,55.2,54.5,51.3,46.8,90,75,47,29.97,29.87,4,0,6,0.00
2013-3-31,64.9,58.7,54.9,56.8,53.9,52.5,94,85,68,29.96,29.89,3,0,6,0.00
2013-4-1,78.3,60.3,53.8,56.9,52.4,47.3,95,77,43,30.04,29.94,1,0,2,0.02
2013-4-2,84.6,60.0,49.3,56.0,50.3,46.4,90,73,37,30.08,29.96,1,0,2,0.00
2013-4-3,67.6,55.2,49.1,54.6,49.1,45.6,92,80,63,30.04,29.88,0,0,1,0.00
2013-4-4,59.9,56.3,52.2,57.0,53.3,46.2,94,90,75,30.01,29.88,2,0,4,0.00
2013-4-5,56.8,55.0,54.1,54.8,52.8,49.9,96,92,83,30.08,30.01,0,0,1,0.00
2013-4-6,69.1,59.9,53.6,56.1,50.9,46.5,93,74,45,30.08,30.02,2,0,5,0.00
2013-4-7,62.2,57.0,53.6,54.1,50.7,49.4,89,80,63,30.07,29.95,3,0,8,0.00
2013-4-8,64.0,57.4,47.8,41.4,37.0,29.7,59,47,35,29.92,29.82,2,0,8,0.00
2013-4-9,80.8,64.3,55.2,43.3,33.4,24.7,49,33,18,30.00,29.93,4,1,9,0.00
2013-4-10,82.6,70.3,61.0,53.7,44.9,37.4,60,41,27,30.07,29.92,4,1,8,0.00
2013-4-11,79.3,67.3,54.0,45.4,42.0,37.2,70,43,22,29.82,29.72,3,1,5,0.00
2013-4-12,82.8,60.8,47.3,52.7,46.2,42.5,87,63,26,29.81,29.70,2,0,3,0.00
2013-4-13,70.0,58.4,50.5,48.7,43.6,38.8,81,61,33,29.80,29.72,4,0,8,0.00
2013-4-15,57.2,52.3,47.1,38.0,35.9,30.2,70,54,39,29.86,29.77,4,3,14,0.00
2013-4-16,68.0,55.9,46.4,38.7,30.3,20.1,60,40,17,30.06,29.86,4,1,7,0.00
2013-4-17,75.9,61.7,54.0,36.3,24.9,11.7,44,26,11,30.17,30.06,2,0,5,0.00
2013-4-18,86.7,65.1,52.5,43.2,33.3,24.7,56,34,11,30.17,30.05,2,0,4,0.00
2013-4-19,58.5,54.4,50.9,47.9,43.2,40.2,76,66,51,30.13,30.09,0,0,0,0.00
2013-4-21,98.6,82.1,65.8,48.0,43.1,35.0,51,28,11,29.88,29.79,0,0,1,0.03
2013-4-22,93.2,72.6,58.8,50.7,42.2,29.5,66,39,11,29.86,29.71,0,0,1,0.00
2013-4-24,68.4,58.5,48.2,48.6,46.8,42.3,81,66,48,29.79,29.75,0,0,3,0.00
2013-4-30,87.6,76.3,60.1,50.9,35.9,19.3,65,27,10,29.75,29.67,0,0,1,0.00
2013-5-1,77.0,69.6,66.4,25.9,17.8,13.2,21,14,11,29.90,29.74,0,0,2,0.00
2013-5-3,85.6,73.3,61.0,42.5,36.7,25.1,37,28,11,29.92,29.79,0,0,0,0.00
2013-5-6,62.8,61.8,61.2,51.9,51.2,50.2,71,68,65,29.86,29.78,0,0,1,0.00
2013-5-7,84.6,66.3,59.5,55.1,51.6,44.7,76,62,25,29.92,29.86,0,0,2,0.00
2013-5-9,84.0,65.8,55.8,52.2,50.1,47.4,81,59,28,30.06,29.96,0,0,2,0.06
2013-5-10,86.2,63.4,52.0,56.6,50.5,47.3,88,66,28,30.07,29.97,0,0,2,0.00
2013-5-11,97.9,66.7,51.8,58.4,52.2,47.4,89,64,22,30.03,29.90,0,0,0,0.00
2013-5-12,82.6,64.9,53.1,59.1,53.2,48.4,86,68,35,30.04,29.96,0,0,1,0.00
2013-5-13,87.1,70.8,54.3,58.7,51.8,45.0,79,54,26,29.98,29.82,1,0,6,0.00
2013-5-14,91.2,67.7,55.4,53.8,47.6,33.5,80,54,14,29.88,29.79,1,0,3,0.00
2013-5-15,73.4,63.1,53.2,49.3,44.5,39.4,74,53,34,29.92,29.86,1,0,3,0.00
2013-5-16,75.9,63.2,55.8,54.1,49.7,45.9,79,63,36,29.92,29.85,1,0,4,0.00
2013-5-17,55.9,55.8,55.8,45.4,45.2,45.1,68,68,67,29.88,29.88,2,1,4,0.00
2013-5-18,79.5,67.7,50.7,52.6,47.8,42.3,81,52,32,30.03,29.97,2,0,7,0.00
2013-5-19,91.0,69.6,54.3,50.7,41.7,27.6,71,42,12,30.02,29.86,0,0,2,0.00
2013-5-21,67.3,60.4,56.5,46.8,44.0,40.7,69,56,39,29.87,29.80,1,0,2,0.27
2013-5-22,50.5,50.4,50.2,28.6,28.4,28.3,43,42,42,29.93,29.93,1,1,2,0.00
2013-5-23,70.0,54.9,48.4,41.1,39.6,37.1,74,58,30,29.91,29.82,2,0,3,0.00
2013-5-24,72.9,62.0,49.6,46.9,41.9,35.3,72,50,28,29.90,29.83,1,0,4,0.00
2013-5-25,70.0,59.1,51.6,49.2,44.2,5.5,73,60,15,29.90,29.86,0,0,2,0.00
2013-5-26,69.3,64.5,57.0,52.1,50.8,49.3,82,62,49,30.00,29.96,1,0,2,0.00
2013-5-28,69.1,65.2,59.4,57.0,34.5,19.5,92,46,15,29.96,29.87,0,0,1,0.00
2013-5-29,61.7,61.3,60.4,54.6,54.2,53.7,81,77,75,29.87,29.84,2,0,4,0.00
2013-5-30,69.1,63.5,55.0,53.7,44.9,40.8,75,52,36,29.89,29.85,0,0,2,0.21
2013-5-31,91.9,72.9,55.4,78.9,59.0,43.9,66,62,52,29.89,29.79,0,0,2,0.00
2013-6-1,91.9,79.8,60.8,52.9,48.0,37.7,62,36,16,29.81,29.64,0,0,2,3.14
2013-6-2,83.5,70.9,58.1,53.2,49.2,43.9,69,50,25,29.67,29.54,0,0,2,3.14
2013-6-5,72.3,66.2,61.5,52.6,51.5,50.5,68,60,50,29.84,29.80,0,0,2,0.00
2013-6-10,71.6,63.0,56.8,55.2,53.6,51.8,91,72,52,29.85,29.79,0,0,2,0.60
2013-6-11,82.2,70.7,58.8,56.7,52.5,39.0,82,55,27,29.88,29.77,1,0,2,3.54
2013-6-13,82.0,73.6,63.1,49.9,44.1,36.0,57,36,22,29.98,29.87,0,0,2,2.22
2013-6-14,92.8,69.3,57.2,48.3,43.2,25.9,72,47,10,29.88,29.68,0,0,1,0.02
2013-6-18,70.2,66.4,59.5,50.1,48.6,47.6,67,53,48,29.88,29.86,3,2,6,0.02
2013-6-19,61.7,60.9,60.4,46.8,46.0,44.4,60,58,53,29.92,29.91,1,0,3,0.00
2013-6-20,81.5,66.0,54.7,51.1,44.5,35.2,72,49,19,29.91,29.82,2,0,4,2.40
2013-6-21,91.0,69.9,54.5,54.3,45.2,33.4,78,48,14,29.87,29.78,1,0,4,2.52
2013-6-22,68.7,65.2,63.0,51.9,48.7,47.0,56,55,54,29.83,29.75,0,0,0,2.52
2013-6-27,94.8,77.5,61.7,65.0,58.1,50.0,90,58,22,29.97,29.88,1,0,3,2.39
2013-6-28,116.2,82.1,64.4,63.8,57.3,32.0,83,53,10,29.91,29.75,1,0,4,0.00
2013-7-1,102.7,87.5,71.4,61.8,57.2,31.8,61,39,10,29.76,29.66,0,0,2,0.00
2013-7-2,92.8,76.0,66.2,58.9,54.7,42.9,71,52,18,29.79,29.70,2,0,4,0.00
2013-7-3,89.6,79.4,73.9,58.0,57.5,55.8,57,48,32,29.67,29.63,0,0,0,0.00
2013-7-4,97.5,79.5,68.4,61.5,53.5,30.4,71,48,12,29.66,29.54,2,0,6,0.00
2013-7-5,79.9,70.0,55.8,54.9,52.8,50.7,83,56,40,29.63,29.56,2,0,4,0.00
2013-7-6,75.9,58.0,54.0,53.4,51.4,50.0,90,80,42,29.71,29.62,2,0,4,0.00
2013-7-7,56.5,56.2,55.8,50.7,50.7,50.7,83,82,81,29.67,29.67,0,0,0,0.00
2013-7-8,77.2,67.9,63.0,54.8,53.4,52.7,70,60,46,29.86,29.69,0,0,0,0.00
2013-7-9,107.4,72.8,55.8,61.4,54.8,48.0,88,61,14,29.93,29.79,0,0,0,0.00
2013-7-10,77.7,63.1,55.9,57.8,53.7,50.2,84,72,49,29.88,29.82,0,0,2,0.00
2013-7-12,89.2,67.1,55.4,58.3,53.3,50.6,85,64,30,29.85,29.74,0,0,4,0.01
2013-7-13,94.5,66.6,52.7,57.0,52.6,48.4,88,65,26,29.86,29.77,0,0,2,0.00
2013-7-14,71.1,60.1,54.0,56.6,52.3,48.8,85,76,60,29.90,29.84,0,0,0,0.00
2013-7-18,95.4,76.6,61.3,59.2,55.6,52.2,76,52,27,29.93,29.81,0,0,2,0.00
2013-7-19,60.4,57.5,55.4,52.5,51.5,50.5,86,80,74,29.84,29.81,0,0,0,0.44
2013-7-20,84.7,71.7,61.3,57.1,54.6,52.1,79,57,36,29.73,29.61,0,0,2,0.01
2013-7-22,80.8,73.7,69.1,59.6,56.4,52.4,71,55,41,29.85,29.68,1,0,2,0.00
2013-7-23,81.9,73.8,64.6,60.0,57.7,56.4,76,58,43,29.89,29.82,0,0,1,0.00
2013-7-24,98.4,78.1,61.5,60.2,57.5,53.7,83,53,23,29.88,29.76,0,0,0,0.00
2013-7-25,67.1,62.0,59.5,55.8,53.7,52.7,79,74,67,29.86,29.80,0,0,0,0.00
2013-7-26,79.0,67.1,61.9,55.8,54.3,53.5,74,64,45,29.93,29.87,0,0,1,0.00
2013-7-27,61.3,60.1,59.7,53.4,53.0,52.5,79,77,75,29.92,29.89,0,0,0,0.00
2013-7-28,68.2,60.0,55.9,57.6,53.9,52.1,87,81,69,29.86,29.75,0,0,0,0.00
2013-7-29,59.5,58.2,56.7,54.2,53.4,52.5,86,84,79,29.90,29.81,0,0,3,0.00
2013-7-30,77.0,62.9,55.8,56.7,53.3,51.3,89,73,43,30.00,29.91,1,0,2,0.00
2013-7-31,87.4,65.1,55.8,57.4,51.8,44.1,85,67,26,29.98,29.88,0,0,2,0.00
2013-8-1,63.3,62.5,61.5,50.9,50.6,50.1,68,65,62,29.92,29.90,0,0,0,0.00
2013-8-18,77.2,75.0,72.7,59.7,59.5,59.2,63,59,55,29.68,29.66,0,0,0,0.00
2013-8-19,91.0,74.8,65.3,59.1,56.4,51.3,75,55,26,29.77,29.67,1,0,4,0.00
2013-8-20,80.2,68.5,60.4,59.1,55.8,50.4,89,66,37,29.79,29.69,1,0,4,0.00
2013-8-21,62.8,60.5,58.8,54.7,54.3,53.9,85,80,75,29.79,29.78,0,0,1,0.00
2013-9-3,67.1,66.9,66.7,55.8,55.8,55.8,68,68,67,29.85,29.85,0,0,0,0.04
2013-9-4,83.5,70.1,60.1,57.4,54.7,48.6,86,61,35,29.92,29.83,2,0,6,0.00
2013-9-5,86.9,69.3,60.1,56.5,53.3,47.4,85,59,29,29.90,29.83,2,0,4,0.00
2013-9-6,79.5,65.0,58.3,54.9,50.7,40.6,84,64,25,29.88,29.71,0,0,0,0.00
2013-9-7,107.6,80.8,64.6,57.0,47.9,33.4,60,37,10,29.77,29.65,0,0,1,0.00
2013-9-8,67.6,62.1,58.8,54.1,52.9,52.1,79,72,62,29.76,29.72,0,0,0,0.00
2013-9-11,66.6,66.0,65.3,59.8,59.6,59.5,82,80,79,29.86,29.85,0,0,0,0.00
2013-9-12,65.7,64.7,63.0,60.4,59.9,58.7,87,84,81,29.86,29.83,0,0,2,0.02
2013-9-16,85.8,72.3,59.7,60.5,55.5,50.8,86,57,32,29.78,29.67,1,0,4,0.06
2013-9-17,76.5,66.2,60.8,54.8,52.6,49.7,79,62,42,29.77,29.70,2,1,6,0.00
2013-9-18,88.9,68.1,57.6,53.6,46.9,34.8,76,51,15,29.80,29.70,2,0,4,0.00
2013-9-19,62.2,58.1,55.8,47.2,46.7,46.4,72,66,57,29.74,29.71,0,0,0,0.00
2013-9-23,71.4,68.3,66.0,56.8,56.5,55.9,72,66,60,29.84,29.82,1,0,3,0.00
2013-9-24,73.0,66.0,59.9,55.6,51.3,48.0,79,60,45,29.88,29.78,5,1,11,0.00
2013-9-25,68.0,61.1,57.4,50.0,46.2,42.9,74,59,41,29.83,29.73,3,1,10,0.00
2013-9-26,80.8,66.9,55.6,42.8,35.7,24.6,57,34,16,29.88,29.74,2,0,5,0.00
2013-9-27,81.7,66.5,54.9,39.2,32.1,16.5,51,30,10,29.99,29.88,2,0,4,0.00
2013-9-28,88.9,65.3,53.4,55.6,42.3,19.0,77,50,10,29.98,29.88,2,0,6,0.00
2013-9-29,79.3,65.8,57.2,61.6,58.1,53.7,92,77,51,29.99,29.93,2,0,4,0.00
2013-9-30,83.8,67.5,61.3,63.6,58.3,39.5,96,75,42,29.96,29.86,2,0,4,0.00
2013-10-1,82.2,64.6,56.3,52.2,47.7,41.2,74,56,28,29.91,29.81,1,0,3,0.00
2013-10-2,69.8,58.4,54.0,54.8,50.1,48.3,83,74,59,29.91,29.82,0,0,0,0.00
2013-10-5,95.9,75.5,63.3,30.6,21.0,11.8,27,14,10,30.10,29.98,0,0,1,0.00
2013-10-6,90.0,69.2,55.9,33.8,29.2,21.6,38,25,10,30.03,29.88,0,0,1,0.00
2013-10-7,69.1,66.0,62.4,41.4,37.4,31.8,46,36,25,29.78,29.77,0,0,0,0.00
2013-10-8,80.2,62.6,52.3,52.0,44.3,32.1,73,54,18,29.81,29.62,1,0,3,0.00
2013-10-9,77.0,61.3,51.8,46.7,43.1,35.5,75,55,24,29.61,29.53,2,0,4,0.00
2013-10-11,46.2,46.0,45.5,42.9,42.9,42.7,90,88,88,29.96,29.94,0,0,0,0.00
2013-10-12,75.2,62.2,47.8,52.5,47.8,38.5,92,62,27,29.90,29.79,3,0,5,0.00
2013-10-13,77.0,58.4,50.7,49.9,44.2,36.4,85,62,23,29.95,29.81,1,0,2,0.00
2013-10-14,86.5,62.7,49.8,47.0,38.3,27.9,82,47,12,30.01,29.87,1,0,3,0.00
2013-10-15,88.5,66.3,51.4,38.7,30.8,19.3,58,31,11,29.94,29.81,0,0,0,0.00
2013-10-16,61.3,60.9,60.6,33.5,32.3,31.2,36,34,32,29.87,29.87,0,0,0,0.00
2013-10-19,88.0,72.6,59.2,46.6,42.8,37.1,60,37,17,29.95,29.86,0,0,3,0.00
2013-10-22,58.1,54.8,52.2,50.2,49.1,48.1,86,81,75,29.86,29.83,0,0,0,0.00
2013-10-23,75.2,55.6,47.7,55.1,49.0,44.9,94,80,47,29.89,29.76,0,0,2,0.00
2013-10-24,71.2,55.0,47.3,52.2,48.3,44.6,92,79,51,30.00,29.88,0,0,2,0.00
2013-10-25,51.3,49.6,48.0,47.5,46.9,46.4,94,91,86,30.05,30.00,0,0,0,0.00
2013-10-27,60.6,54.1,46.4,50.3,46.8,42.5,88,77,60,29.88,29.55,6,1,12,0.00
2013-10-28,65.8,56.1,51.1,47.8,45.2,42.0,81,68,46,29.68,29.55,2,0,11,0.00
2013-10-29,67.5,57.0,51.1,48.6,46.8,45.1,82,70,47,29.94,29.76,1,0,2,0.00
2013-10-30,71.8,54.7,45.7,52.7,46.0,42.2,91,74,43,30.05,29.94,0,0,0,0.00
2013-10-31,51.4,48.7,46.8,43.3,42.8,42.2,86,80,71,30.06,30.02,0,0,0,0.00
2013-11-1,76.8,59.3,50.7,46.3,43.8,41.8,79,59,32,30.05,29.90,0,0,0,0.35
2013-11-2,62.1,57.2,50.5,51.8,46.3,41.2,75,67,55,29.91,29.78,2,0,5,0.05
2013-11-3,63.3,62.1,61.2,34.5,33.9,33.3,35,35,34,29.83,29.82,1,0,2,0.00
2013-11-4,74.1,63.6,50.2,34.2,26.1,16.9,54,25,13,29.97,29.84,2,0,4,0.00
2013-11-5,70.3,58.2,51.3,38.2,32.0,27.9,47,38,21,30.11,29.96,2,0,4,0.00
2013-11-6,66.2,57.2,51.8,37.7,35.8,32.4,56,46,29,30.16,30.12,0,0,0,0.00
2013-11-7,77.2,65.8,56.5,48.6,42.7,36.3,73,46,26,30.06,29.96,1,0,3,0.00
2013-11-8,55.8,52.3,50.5,48.0,47.4,46.9,89,84,74,29.98,29.96,0,0,0,0.00
2013-11-9,49.6,49.3,48.7,45.0,44.7,44.1,84,84,84,29.92,29.91,0,0,0,0.00
2013-11-11,67.1,59.4,49.8,53.8,50.6,47.4,93,74,58,30.06,29.96,0,0,0,0.00
2013-11-12,74.7,61.4,55.6,52.1,49.3,45.9,77,65,43,30.16,30.05,0,0,0,0.00
2013-11-13,75.0,60.2,51.8,56.7,51.6,49.1,93,75,47,30.14,29.99,0,0,2,0.00
2013-11-14,65.3,56.7,50.2,55.7,47.8,36.3,97,75,37,30.00,29.76,4,0,7,0.00
2013-11-15,67.1,55.5,49.1,44.7,41.3,38.4,75,60,36,29.77,29.61,2,0,5,0.00
2013-11-16,63.1,53.9,47.1,49.9,45.2,39.6,81,73,52,29.80,29.66,2,0,6,0.00
2013-11-17,63.5,55.3,48.2,50.9,47.0,42.8,92,74,58,29.98,29.91,0,0,1,0.00
2013-11-18,47.7,47.7,47.7,43.1,43.1,43.1,84,84,84,29.98,29.98,0,0,0,0.00
2013-11-19,57.4,57.3,57.0,56.8,56.6,56.4,98,98,97,29.84,29.82,0,0,2,0.00
2013-11-20,62.2,56.6,51.3,57.8,55.0,49.5,99,95,79,29.82,29.74,0,0,2,0.00
2013-11-21,57.4,56.7,55.4,19.9,17.3,15.0,23,21,20,29.90,29.86,1,0,3,0.00
2013-11-22,72.7,60.2,52.0,17.4,9.4,1.7,22,14,10,29.92,29.79,2,0,3,0.00
2013-11-23,58.6,50.5,47.3,32.0,29.3,15.3,54,45,18,29.94,29.86,0,0,0,0.00
2013-11-25,49.6,49.0,48.6,43.7,42.9,42.4,82,79,76,30.17,30.16,0,0,0,0.00
2013-11-26,48.4,46.9,45.9,43.4,42.6,41.9,87,85,82,30.16,30.13,0,0,0,0.00
2013-11-27,63.0,59.7,53.4,46.5,44.7,42.7,67,58,52,29.85,29.74,0,0,0,0.00
2013-12-2,63.5,58.6,55.8,55.2,51.9,45.1,95,79,63,29.98,29.75,4,0,10,0.00
2013-12-3,57.0,50.6,45.7,55.0,37.5,28.1,93,61,46,29.84,29.73,4,1,8,0.00
2013-12-4,55.0,42.8,35.6,29.8,26.6,23.3,66,53,33,29.97,29.83,0,0,2,0.00
2013-12-5,53.2,39.0,31.5,28.3,23.9,19.0,69,56,30,30.05,29.96,0,0,0,0.00
2013-12-6,49.8,45.2,33.1,47.3,38.3,29.6,93,78,53,30.09,29.87,0,0,2,0.00
2013-12-7,47.7,40.9,34.9,34.2,28.8,25.4,81,63,42,30.16,29.91,3,0,7,0.00
2013-12-8,34.3,32.3,31.5,28.5,28.0,27.7,87,84,77,30.19,30.13,0,0,0,0.00
2013-12-9,50.7,41.0,33.1,28.0,24.8,21.5,71,54,35,30.32,30.26,0,0,2,0.00
2013-12-10,54.3,40.8,33.1,30.4,28.6,27.1,81,63,39,30.31,30.11,0,0,1,0.00
2013-12-11,38.3,37.0,36.1,29.2,28.6,28.0,75,72,66,30.12,30.10,0,0,0,0.00
2013-12-12,45.3,41.5,38.7,36.8,34.1,32.4,78,75,72,30.16,30.11,0,0,0,0.23
2013-12-13,59.5,46.2,38.7,44.1,38.5,36.0,91,76,55,30.23,30.12,0,0,0,0.00
2013-12-14,61.7,48.3,40.6,40.8,37.5,36.1,87,68,43,30.30,30.20,0,0,2,0.00
2013-12-15,63.3,53.2,47.3,40.4,38.7,37.6,71,59,41,30.17,30.13,0,0,0,0.00
2013-12-16,67.1,53.9,47.5,38.1,36.5,33.9,69,53,30,30.14,30.02,0,0,0,0.00
2013-12-17,57.2,52.2,47.7,38.4,37.0,35.1,68,56,47,30.11,30.05,0,0,1,0.00
2013-12-19,86.4,76.7,57.2,53.8,48.3,37.2,47,38,33,30.11,29.92,0,0,2,0.00
2013-12-20,53.1,51.0,48.7,33.3,30.7,26.8,55,46,37,29.88,29.86,0,0,2,0.00
2013-12-21,57.2,54.5,49.1,48.3,45.6,40.1,72,72,71,29.89,29.86,1,0,3,0.00